createdAt,value
2023-03-11T00:00:24.024Z,1.67
2023-03-11T00:02:52.127Z,1.45
2023-03-11T00:05:23.078Z,1.58
2023-03-11T00:07:49.900Z,1.58
2023-03-11T00:10:19.312Z,1.45
2023-03-11T00:12:45.982Z,1.42
2023-03-11T00:15:13.369Z,1.20
2023-03-11T00:17:40.937Z,0.65
2023-03-11T00:20:09.229Z,1.27
2023-03-11T00:22:36.262Z,1.52
2023-03-11T00:25:29.336Z,1.23
2023-03-11T00:27:56.677Z,1.20
2023-03-11T00:30:24.339Z,1.83
2023-03-11T00:32:53.266Z,3.83
2023-03-11T00:35:24.403Z,1.00
2023-03-11T00:37:54.861Z,2.05
2023-03-11T00:40:23.207Z,1.77
2023-03-11T00:42:49.993Z,1.20
2023-03-11T00:45:17.212Z,1.50
2023-03-11T00:47:43.945Z,1.88
2023-03-11T00:50:15.526Z,5.80
2023-03-11T00:52:42.266Z,1.35
2023-03-11T00:55:11.695Z,2.20
2023-03-11T00:57:40.121Z,2.22
2023-03-11T01:00:11.803Z,1.42
2023-03-11T01:02:39.258Z,1.75
2023-03-11T01:05:06.701Z,1.48
2023-03-11T01:07:34.166Z,1.05
2023-03-11T01:10:01.519Z,1.15
2023-03-11T01:12:28.972Z,2.70
2023-03-11T01:14:55.754Z,1.17
2023-03-11T01:17:22.932Z,1.77
2023-03-11T01:19:50.019Z,1.25
2023-03-11T01:22:17.099Z,1.73
2023-03-11T01:24:43.968Z,1.23
2023-03-11T01:27:10.953Z,1.38
2023-03-11T01:29:37.677Z,1.30
2023-03-11T01:32:05.223Z,1.60
2023-03-11T01:34:33.638Z,1.25
2023-03-11T01:37:00.673Z,0.77
2023-03-11T01:39:27.921Z,0.82
2023-03-11T01:41:56.205Z,1.65
2023-03-11T01:44:23.492Z,1.67
2023-03-11T01:46:53.450Z,2.10
2023-03-11T01:49:24.815Z,2.50
2023-03-11T01:51:55.382Z,1.30
2023-03-11T01:54:26.209Z,1.75
2023-03-11T01:56:53.509Z,1.65
2023-03-11T01:59:23.920Z,1.92
2023-03-11T02:02:05.310Z,1.38
2023-03-11T02:04:34.477Z,1.13
2023-03-11T02:07:27.502Z,1.48
2023-03-11T02:10:20.484Z,1.10
2023-03-11T02:12:49.154Z,0.95
2023-03-11T02:15:21.902Z,1.35
2023-03-11T02:17:48.964Z,1.65
2023-03-11T02:20:37.960Z,1.48
2023-03-11T02:23:10.269Z,1.58
2023-03-11T02:25:53.340Z,1.58
2023-03-11T02:28:21.312Z,2.30
2023-03-11T02:30:48.883Z,1.15
2023-03-11T02:33:17.140Z,1.90
2023-03-11T02:35:45.966Z,1.60
2023-03-11T02:38:14.156Z,2.88
2023-03-11T02:40:48.953Z,1.60
2023-03-11T02:43:21.141Z,1.98
2023-03-11T02:45:48.903Z,1.25
2023-03-11T02:48:16.681Z,1.17
2023-03-11T02:50:44.700Z,1.23
2023-03-11T02:53:11.641Z,1.25
2023-03-11T02:55:38.615Z,1.80
2023-03-11T02:58:07.031Z,1.50
2023-03-11T03:00:34.585Z,1.35
2023-03-11T03:03:05.599Z,1.40
2023-03-11T03:05:32.619Z,1.13
2023-03-11T03:08:25.777Z,2.53
2023-03-11T03:11:18.322Z,1.25
2023-03-11T03:13:46.463Z,1.55
2023-03-11T03:16:13.598Z,1.17
2023-03-11T03:18:40.364Z,1.52
2023-03-11T03:21:09.826Z,1.30
2023-03-11T03:23:37.969Z,1.05
2023-03-11T03:26:09.179Z,2.42
2023-03-11T03:28:37.701Z,1.48
2023-03-11T03:31:07.774Z,1.52
2023-03-11T03:33:35.637Z,1.70
2023-03-11T03:36:07.406Z,1.40
2023-03-11T03:38:39.592Z,1.60
2023-03-11T03:41:06.487Z,1.08
2023-03-11T03:43:36.131Z,1.63
2023-03-11T03:46:05.384Z,0.93
2023-03-11T03:48:38.872Z,1.77
2023-03-11T03:51:10.375Z,1.42
2023-03-11T03:53:42.430Z,1.60
2023-03-11T03:56:12.807Z,2.33
2023-03-11T03:58:39.663Z,1.83
2023-03-11T04:01:08.009Z,1.25
2023-03-11T04:03:35.913Z,1.38
2023-03-11T04:06:12.378Z,1.13
2023-03-11T04:08:40.604Z,1.42
2023-03-11T04:11:08.958Z,0.88
2023-03-11T04:13:36.576Z,2.10
2023-03-11T04:16:07.855Z,1.23
2023-03-11T04:18:35.408Z,1.63
2023-03-11T04:21:06.760Z,1.15
2023-03-11T04:23:34.758Z,1.25
2023-03-11T04:26:02.029Z,1.52
2023-03-11T04:28:29.392Z,1.40
2023-03-11T04:30:56.921Z,1.98
2023-03-11T04:33:24.004Z,1.05
2023-03-11T04:35:50.865Z,1.42
2023-03-11T04:38:18.763Z,1.55
2023-03-11T04:40:45.876Z,1.70
2023-03-11T04:43:13.055Z,1.38
2023-03-11T04:45:40.452Z,1.55
2023-03-11T04:48:07.848Z,3.25
2023-03-11T04:50:35.581Z,2.47
2023-03-11T04:53:02.295Z,1.55
2023-03-11T04:55:29.338Z,1.58
2023-03-11T04:57:56.113Z,1.83
2023-03-11T05:00:25.168Z,2.15
2023-03-11T05:03:01.699Z,1.25
2023-03-11T05:05:29.695Z,0.73
2023-03-11T05:07:56.398Z,1.33
2023-03-11T05:10:23.684Z,1.95
2023-03-11T05:13:15.306Z,1.58
2023-03-11T05:15:42.695Z,1.38
2023-03-11T05:18:10.348Z,1.52
2023-03-11T05:20:39.143Z,1.23
2023-03-11T05:23:07.254Z,1.20
2023-03-11T05:25:35.885Z,1.65
2023-03-11T05:28:03.633Z,1.20
2023-03-11T05:30:31.916Z,1.40
2023-03-11T05:32:58.764Z,1.55
2023-03-11T05:35:26.177Z,1.88
2023-03-11T05:37:53.982Z,2.92
2023-03-11T05:40:27.801Z,0.95
2023-03-11T05:42:56.222Z,1.63
2023-03-11T05:45:23.255Z,1.58
2023-03-11T05:47:54.571Z,1.38
2023-03-11T05:50:21.336Z,1.85
2023-03-11T05:52:50.098Z,1.15
2023-03-11T05:55:17.242Z,2.22
2023-03-11T05:57:45.761Z,1.40
2023-03-11T06:00:13.512Z,1.15
2023-03-11T06:02:41.354Z,1.45
2023-03-11T06:05:13.698Z,2.00
2023-03-11T06:07:42.528Z,1.55
2023-03-11T06:10:10.071Z,2.03
2023-03-11T06:12:38.719Z,2.75
2023-03-11T06:15:38.177Z,1.15
2023-03-11T06:18:05.876Z,1.25
2023-03-11T06:20:33.996Z,1.60
2023-03-11T06:23:00.847Z,1.83
2023-03-11T06:25:28.335Z,1.98
2023-03-11T06:27:55.234Z,1.70
2023-03-11T06:30:24.467Z,1.50
2023-03-11T06:33:01.255Z,2.13
2023-03-11T06:35:28.074Z,2.05
2023-03-11T06:37:55.579Z,2.17
2023-03-11T06:40:22.570Z,1.67
2023-03-11T06:42:49.557Z,1.45
2023-03-11T06:45:20.526Z,1.33
2023-03-11T06:47:48.251Z,1.83
2023-03-11T06:50:15.145Z,1.52
2023-03-11T06:52:41.997Z,1.52
2023-03-11T06:55:09.396Z,1.60
2023-03-11T06:57:37.030Z,2.05
2023-03-11T07:00:12.057Z,1.30
2023-03-11T07:02:40.351Z,1.98
2023-03-11T07:05:07.474Z,1.83
2023-03-11T07:07:34.507Z,1.95
2023-03-11T07:10:02.876Z,2.05
2023-03-11T07:12:30.369Z,1.17
2023-03-11T07:14:58.226Z,1.48
2023-03-11T07:17:25.587Z,1.50
2023-03-11T07:19:53.357Z,1.58
2023-03-11T07:22:20.288Z,1.60
2023-03-11T07:24:50.457Z,1.30
2023-03-11T07:27:17.735Z,1.40
2023-03-11T07:29:44.869Z,1.77
2023-03-11T07:32:11.617Z,1.27
2023-03-11T07:34:38.318Z,1.30
2023-03-11T07:37:05.259Z,1.98
2023-03-11T07:39:32.051Z,1.25
2023-03-11T07:41:58.734Z,1.58
2023-03-11T07:44:34.048Z,1.50
2023-03-11T07:47:04.992Z,1.83
2023-03-11T07:49:32.416Z,1.55
2023-03-11T07:51:59.129Z,1.52
2023-03-11T07:54:26.244Z,1.77
2023-03-11T07:56:52.973Z,1.50
2023-03-11T07:59:19.719Z,1.83
2023-03-11T08:01:47.462Z,1.75
2023-03-11T08:04:16.853Z,1.02
2023-03-11T08:06:46.218Z,1.15
2023-03-11T08:09:13.512Z,1.40
2023-03-11T08:11:40.651Z,1.52
2023-03-11T08:14:07.623Z,1.45
2023-03-11T08:16:34.628Z,1.35
2023-03-11T08:19:01.820Z,1.33
2023-03-11T08:21:31.858Z,1.42
2023-03-11T08:24:00.777Z,1.38
2023-03-11T08:28:55.113Z,2.15
2023-03-11T08:31:31.060Z,1.33
2023-03-11T08:34:03.630Z,1.98
2023-03-11T08:36:31.057Z,2.17
2023-03-11T08:38:58.495Z,1.35
2023-03-11T08:41:25.428Z,1.30
2023-03-11T08:43:52.710Z,2.05
2023-03-11T08:46:25.660Z,1.52
2023-03-11T08:48:53.051Z,2.08
2023-03-11T08:51:20.070Z,2.05
2023-03-11T08:53:47.637Z,1.60
2023-03-11T08:56:39.472Z,3.25
2023-03-11T08:59:06.892Z,1.55
2023-03-11T09:01:33.677Z,2.22
2023-03-11T09:04:00.477Z,1.20
2023-03-11T09:06:27.163Z,1.27
2023-03-11T09:08:53.870Z,1.83
2023-03-11T09:11:22.558Z,1.33
2023-03-11T09:13:49.634Z,2.15
2023-03-11T09:16:19.178Z,1.45
2023-03-11T09:18:46.427Z,1.92
2023-03-11T09:21:13.461Z,1.88
2023-03-11T09:23:43.871Z,1.83
2023-03-11T09:26:11.195Z,1.10
2023-03-11T09:28:38.080Z,1.48
2023-03-11T09:31:04.986Z,1.25
2023-03-11T09:33:31.680Z,1.15
2023-03-11T09:35:58.979Z,1.63
2023-03-11T09:38:25.878Z,1.77
2023-03-11T09:41:22.506Z,1.77
2023-03-11T09:44:16.779Z,1.90
2023-03-11T09:47:16.026Z,1.85
2023-03-11T09:50:15.381Z,1.02
2023-03-11T09:53:08.647Z,1.08
2023-03-11T09:55:41.707Z,1.38
2023-03-11T09:58:37.878Z,1.52
2023-03-11T10:01:33.414Z,2.03
2023-03-11T10:04:24.154Z,1.40
2023-03-11T10:06:51.826Z,1.15
2023-03-11T10:09:39.466Z,1.30
2023-03-11T10:12:20.585Z,2.13
2023-03-11T10:14:56.699Z,1.60
2023-03-11T10:17:35.448Z,1.48
2023-03-11T10:20:10.024Z,1.30
2023-03-11T10:25:10.468Z,1.30
2023-03-11T10:27:51.532Z,1.40
2023-03-11T10:30:21.767Z,1.10
2023-03-11T10:32:55.393Z,1.55
2023-03-11T10:35:24.904Z,1.55
2023-03-11T10:37:59.021Z,1.20
2023-03-11T10:40:35.158Z,1.77
2023-03-11T10:43:04.745Z,1.00
2023-03-11T10:45:38.116Z,1.50
2023-03-11T10:48:13.056Z,1.65
2023-03-11T10:50:50.810Z,1.80
2023-03-11T10:53:19.859Z,1.55
2023-03-11T10:55:50.077Z,1.42
2023-03-11T10:58:21.005Z,1.13
2023-03-11T11:01:03.498Z,1.80
2023-03-11T11:03:30.453Z,1.63
2023-03-11T11:06:06.279Z,1.23
2023-03-11T11:08:34.050Z,1.25
2023-03-11T11:11:02.887Z,1.58
2023-03-11T11:16:17.725Z,1.00
2023-03-11T11:18:49.251Z,1.35
2023-03-11T11:21:38.140Z,1.20
2023-03-11T11:24:27.444Z,2.28
2023-03-11T11:27:16.921Z,2.00
2023-03-11T11:29:44.106Z,1.27
2023-03-11T11:32:40.146Z,1.75
2023-03-11T11:35:14.854Z,1.02
2023-03-11T11:37:48.589Z,0.85
2023-03-11T11:40:15.829Z,1.75
2023-03-11T11:42:54.368Z,2.58
2023-03-11T11:45:29.722Z,0.93
2023-03-11T11:47:59.791Z,0.93
2023-03-11T11:50:32.520Z,1.25
2023-03-11T11:53:11.610Z,1.00
2023-03-11T11:55:42.362Z,0.95
2023-03-11T11:58:12.220Z,0.85
2023-03-11T12:00:51.218Z,0.85
2023-03-11T12:03:18.028Z,1.35
2023-03-11T12:06:17.557Z,1.20
2023-03-11T12:09:16.721Z,0.95
2023-03-11T12:11:57.329Z,1.45
2023-03-11T12:14:32.064Z,1.42
2023-03-11T12:17:04.398Z,1.30
2023-03-11T12:19:42.774Z,1.45
2023-03-11T12:22:15.477Z,1.65
2023-03-11T12:24:48.444Z,1.35
2023-03-11T12:27:26.684Z,0.95
2023-03-11T12:29:56.620Z,0.90
2023-03-11T12:32:36.800Z,1.42
2023-03-11T12:35:35.509Z,2.22
2023-03-11T12:38:32.488Z,1.15
2023-03-11T12:41:15.225Z,1.20
2023-03-11T12:43:41.972Z,1.45
2023-03-11T12:46:12.175Z,1.10
2023-03-11T12:48:46.229Z,1.85
2023-03-11T12:51:37.563Z,1.50
2023-03-11T12:54:32.412Z,1.25
2023-03-11T12:57:26.126Z,1.73
2023-03-11T13:00:30.679Z,1.27
2023-03-11T13:03:19.138Z,1.33
2023-03-11T13:05:58.014Z,2.25
2023-03-11T13:08:27.478Z,1.25
2023-03-11T13:10:55.715Z,1.00
2023-03-11T13:13:25.679Z,1.25
2023-03-11T13:15:52.919Z,1.45
2023-03-11T13:18:23.601Z,1.25
2023-03-11T13:21:00.983Z,1.60
2023-03-11T13:23:27.715Z,2.53
2023-03-11T13:25:54.391Z,1.58
2023-03-11T13:28:49.383Z,2.00
2023-03-11T13:31:31.174Z,1.33
2023-03-11T13:34:07.248Z,1.45
2023-03-11T13:37:06.749Z,2.00
2023-03-11T13:39:33.358Z,1.15
2023-03-11T13:42:00.296Z,1.35
2023-03-11T13:44:31.373Z,1.50
2023-03-11T13:47:09.892Z,1.70
2023-03-11T13:49:45.555Z,1.60
2023-03-11T13:52:19.047Z,1.08
2023-03-11T13:54:48.968Z,1.88
2023-03-11T13:57:50.433Z,1.77
2023-03-11T14:00:24.065Z,1.20
2023-03-11T14:02:56.555Z,1.65
2023-03-11T14:05:28.102Z,0.98
2023-03-11T14:07:54.985Z,2.55
2023-03-11T14:10:23.403Z,1.55
2023-03-11T14:12:50.710Z,1.63
2023-03-11T14:15:24.336Z,1.77
2023-03-11T14:17:52.800Z,1.33
2023-03-11T14:20:29.004Z,1.95
2023-03-11T14:22:56.628Z,1.77
2023-03-11T14:25:26.304Z,1.10
2023-03-11T14:27:58.453Z,1.45
2023-03-11T14:30:30.351Z,2.22
2023-03-11T14:33:05.985Z,3.08
2023-03-11T14:35:34.160Z,1.73
2023-03-11T14:38:01.260Z,2.08
2023-03-11T14:40:42.211Z,1.30
2023-03-11T14:43:10.944Z,1.73
2023-03-11T14:48:44.032Z,1.33
2023-03-11T14:51:24.861Z,3.20
2023-03-11T14:54:06.592Z,2.45
2023-03-11T14:56:36.470Z,1.95
2023-03-11T14:59:17.150Z,1.90
2023-03-11T15:01:44.633Z,1.38
2023-03-11T15:04:14.017Z,1.08
2023-03-11T15:06:43.472Z,2.00
2023-03-11T15:09:16.762Z,1.98
2023-03-11T15:11:52.942Z,2.00
2023-03-11T15:14:35.356Z,2.17
2023-03-11T15:17:32.875Z,2.20
2023-03-11T15:20:02.874Z,1.25
2023-03-11T15:22:39.863Z,1.30
2023-03-11T15:25:18.280Z,2.03
2023-03-11T15:27:45.456Z,1.60
2023-03-11T15:30:21.294Z,1.02
2023-03-11T15:32:48.693Z,1.77
2023-03-11T15:35:22.590Z,2.33
2023-03-11T15:37:51.639Z,1.55
2023-03-11T15:40:18.469Z,1.92
2023-03-11T15:42:46.154Z,1.60
2023-03-11T15:45:18.057Z,1.65
2023-03-11T15:47:46.292Z,1.17
2023-03-11T15:50:37.631Z,1.88
2023-03-11T15:53:13.624Z,1.15
2023-03-11T15:55:40.405Z,2.03
2023-03-11T15:58:09.223Z,2.17
2023-03-11T16:00:37.213Z,1.90
2023-03-11T16:03:04.866Z,2.58
2023-03-11T16:05:31.651Z,1.70
2023-03-11T16:07:58.483Z,4.97
2023-03-11T16:10:25.833Z,3.28
2023-03-11T16:12:52.538Z,6.50
2023-03-11T16:15:34.211Z,7.22
2023-03-11T16:18:03.266Z,2.42
2023-03-11T16:20:52.989Z,8.98
2023-03-11T16:23:22.361Z,6.18
2023-03-11T16:25:49.736Z,3.22
2023-03-11T16:28:17.420Z,2.33
2023-03-11T16:30:44.273Z,5.55
2023-03-11T16:33:11.315Z,3.90
2023-03-11T16:35:38.276Z,10.25
2023-03-11T16:38:05.346Z,14.68
2023-03-11T16:40:32.740Z,16.45
2023-03-11T16:43:05.065Z,11.48
2023-03-11T16:45:32.211Z,12.57
2023-03-11T16:47:59.109Z,16.85
2023-03-11T16:50:26.920Z,4.35
2023-03-11T16:52:54.896Z,5.95
2023-03-11T16:55:21.789Z,2.05
2023-03-11T16:57:49.197Z,6.78
2023-03-11T17:00:18.260Z,8.73
2023-03-11T17:02:45.337Z,8.15
2023-03-11T17:05:12.492Z,6.50
2023-03-11T17:07:40.059Z,6.38
2023-03-11T17:10:08.550Z,16.08
2023-03-11T17:12:36.108Z,13.23
2023-03-11T17:15:04.540Z,7.47
2023-03-11T17:17:31.251Z,14.27
2023-03-11T17:19:58.146Z,13.68
2023-03-11T17:22:24.906Z,17.55
2023-03-11T17:24:51.896Z,4.88
2023-03-11T17:27:18.733Z,14.13
2023-03-11T17:29:45.367Z,14.80
2023-03-11T17:32:17.215Z,6.53
2023-03-11T17:34:44.293Z,4.07
2023-03-11T17:37:11.027Z,2.10
2023-03-11T17:39:37.758Z,1.48
2023-03-11T17:42:04.645Z,1.55
2023-03-11T17:44:48.589Z,1.92
2023-03-11T17:47:19.913Z,3.45
2023-03-11T17:49:47.509Z,1.10
2023-03-11T17:52:14.249Z,1.65
2023-03-11T17:54:41.303Z,1.45
2023-03-11T17:57:08.426Z,1.60
2023-03-11T17:59:35.234Z,8.40
2023-03-11T18:02:02.491Z,2.05
2023-03-11T18:04:29.478Z,2.17
2023-03-11T18:06:56.512Z,5.55
2023-03-11T18:09:23.193Z,3.22
2023-03-11T18:11:50.087Z,2.38
2023-03-11T18:14:17.123Z,1.65
2023-03-11T18:16:43.996Z,6.80
2023-03-11T18:19:10.687Z,3.25
2023-03-11T18:21:37.352Z,2.05
2023-03-11T18:24:04.288Z,3.15
2023-03-11T18:26:31.226Z,2.22
2023-03-11T18:28:59.716Z,2.97
2023-03-11T18:31:30.175Z,7.78
2023-03-11T18:34:03.208Z,3.95
2023-03-11T18:36:32.428Z,5.53
2023-03-11T18:39:00.668Z,5.57
2023-03-11T18:41:31.013Z,4.43
2023-03-11T18:43:58.003Z,5.55
2023-03-11T18:46:26.814Z,5.93
2023-03-11T18:51:20.784Z,6.10
2023-03-11T18:53:47.679Z,5.60
2023-03-11T18:56:16.050Z,4.80
2023-03-11T18:58:43.064Z,3.35
2023-03-11T19:01:14.262Z,2.35
2023-03-11T19:03:43.006Z,3.55
2023-03-11T19:06:10.902Z,5.10
2023-03-11T19:08:37.924Z,5.47
2023-03-11T19:11:12.518Z,6.55
2023-03-11T19:16:15.205Z,6.18
2023-03-11T19:18:42.040Z,5.15
2023-03-11T19:21:11.487Z,6.57
2023-03-11T19:23:38.245Z,4.22
2023-03-11T19:26:05.141Z,2.78
2023-03-11T19:28:31.879Z,2.63
2023-03-11T19:30:59.577Z,3.35
2023-03-11T19:33:26.837Z,2.20
2023-03-11T19:36:05.023Z,2.40
2023-03-11T19:38:31.835Z,2.50
2023-03-11T19:41:07.036Z,1.90
2023-03-11T19:43:35.721Z,2.47
2023-03-11T19:46:06.318Z,2.30
2023-03-11T19:48:33.669Z,1.80
2023-03-11T19:51:00.680Z,3.33
2023-03-11T19:53:27.632Z,2.65
2023-03-11T19:55:56.596Z,3.28
2023-03-11T19:58:24.976Z,3.60
2023-03-11T20:00:52.380Z,6.45
2023-03-11T20:03:20.950Z,2.67
2023-03-11T20:05:49.650Z,4.60
2023-03-11T20:08:19.326Z,2.80
2023-03-11T20:10:48.305Z,2.13
2023-03-11T20:13:16.070Z,3.22
2023-03-11T20:15:43.279Z,2.88
2023-03-11T20:18:10.169Z,3.13
2023-03-11T20:20:38.445Z,2.28
2023-03-11T20:23:05.947Z,3.03
2023-03-11T20:25:33.081Z,2.75
2023-03-11T20:28:00.778Z,3.25
2023-03-11T20:30:28.144Z,2.67
2023-03-11T20:32:56.274Z,2.58
2023-03-11T20:35:23.390Z,3.90
2023-03-11T20:37:50.427Z,3.78
2023-03-11T20:40:18.445Z,2.42
2023-03-11T20:42:47.341Z,3.38
2023-03-11T20:45:21.860Z,3.35
2023-03-11T20:50:16.221Z,1.95
2023-03-11T20:52:43.192Z,2.55
2023-03-11T20:55:10.570Z,2.17
2023-03-11T20:57:38.114Z,2.33
2023-03-11T21:00:12.411Z,2.42
2023-03-11T21:02:41.761Z,3.10
2023-03-11T21:05:09.559Z,2.55
2023-03-11T21:07:36.731Z,2.55
2023-03-11T21:10:05.871Z,2.67
2023-03-11T21:12:32.788Z,2.28
2023-03-11T21:14:59.664Z,2.63
2023-03-11T21:17:26.483Z,2.85
2023-03-11T21:19:53.283Z,3.03
2023-03-11T21:22:20.183Z,3.35
2023-03-11T21:24:54.103Z,2.83
2023-03-11T21:27:26.410Z,2.88
2023-03-11T21:29:54.645Z,2.30
2023-03-11T21:32:22.435Z,1.80
2023-03-11T21:34:49.906Z,2.35
2023-03-11T21:37:17.115Z,2.17
2023-03-11T21:39:44.023Z,2.92
2023-03-11T21:42:10.737Z,2.00
2023-03-11T21:44:37.809Z,2.03
2023-03-11T21:47:05.329Z,1.83
2023-03-11T21:49:32.181Z,2.05
2023-03-11T21:52:02.012Z,2.45
2023-03-11T21:54:29.086Z,2.63
2023-03-11T21:56:55.912Z,2.33
2023-03-11T21:59:25.517Z,2.65
2023-03-11T22:01:52.868Z,3.20
2023-03-11T22:04:19.873Z,1.92
2023-03-11T22:06:46.733Z,2.70
2023-03-11T22:09:13.554Z,1.85
2023-03-11T22:11:40.308Z,2.20
2023-03-11T22:14:07.169Z,2.42
2023-03-11T22:16:33.977Z,2.22
2023-03-11T22:19:01.453Z,2.10
2023-03-11T22:21:28.310Z,1.65
2023-03-11T22:23:55.020Z,2.05
2023-03-11T22:26:21.753Z,2.60
2023-03-11T22:28:48.436Z,2.65
2023-03-11T22:31:15.910Z,1.70
2023-03-11T22:33:42.593Z,2.03
2023-03-11T22:36:09.662Z,2.92
2023-03-11T22:38:36.976Z,2.17
2023-03-11T22:41:05.982Z,1.85
2023-03-11T22:43:32.913Z,2.08
2023-03-11T22:46:02.140Z,2.03
2023-03-11T22:48:29.339Z,2.20
2023-03-11T22:50:56.453Z,1.95
2023-03-11T22:53:24.968Z,2.28
2023-03-11T22:55:52.343Z,2.28
2023-03-11T22:58:19.407Z,1.85
2023-03-11T23:00:46.594Z,1.73
2023-03-11T23:03:13.740Z,2.30
2023-03-11T23:05:43.376Z,2.42
2023-03-11T23:08:12.215Z,2.28
2023-03-11T23:10:44.692Z,2.03
2023-03-11T23:13:12.102Z,1.70
2023-03-11T23:15:43.164Z,2.03
2023-03-11T23:18:10.119Z,2.35
2023-03-11T23:20:38.772Z,2.67
2023-03-11T23:23:06.158Z,2.15
2023-03-11T23:25:34.119Z,1.80
2023-03-11T23:28:02.859Z,2.08
2023-03-11T23:30:29.764Z,1.95
2023-03-11T23:32:57.301Z,2.30
2023-03-11T23:35:24.427Z,2.25
2023-03-11T23:37:51.552Z,2.20
2023-03-11T23:40:18.656Z,2.30
2023-03-11T23:42:45.350Z,2.25
2023-03-11T23:45:12.374Z,2.75
2023-03-11T23:47:40.217Z,2.33
2023-03-11T23:50:07.275Z,2.13
2023-03-11T23:52:34.390Z,2.05
2023-03-11T23:55:01.366Z,2.47
2023-03-11T23:57:28.174Z,2.53
2023-03-11T23:59:55.141Z,2.25
